sensor_id;sensor_type;location;lat;lon;timestamp;pressure;altitude;pressure_sealevel;temperature;humidity
41078;BME280;26823;42.662;23.352;2023-04-25T00:00:19;94060.06;;;10.58;100.00
41078;BME280;26823;42.662;23.352;2023-04-25T00:02:45;94045.44;;;10.59;100.00
41078;BME280;26823;42.662;23.352;2023-04-25T00:05:11;94036.59;;;10.53;100.00
41078;BME280;26823;42.662;23.352;2023-04-25T00:07:37;94035.09;;;10.28;100.00
41078;BME280;26823;42.662;23.352;2023-04-25T00:10:04;94027.19;;;9.99;100.00
41078;BME280;26823;42.662;23.352;2023-04-25T00:12:29;94029.25;;;9.69;100.00
41078;BME280;26823;42.662;23.352;2023-04-25T00:14:55;94018.28;;;9.60;100.00
41078;BME280;26823;42.662;23.352;2023-04-25T00:17:22;94018.13;;;9.51;100.00
41078;BME280;26823;42.662;23.352;2023-04-25T00:19:50;93967.53;;;9.24;100.00
41078;BME280;26823;42.662;23.352;2023-04-25T00:22:15;93974.16;;;9.32;100.00
41078;BME280;26823;42.662;23.352;2023-04-25T00:24:41;93991.22;;;9.65;100.00
41078;BME280;26823;42.662;23.352;2023-04-25T00:27:07;93987.13;;;9.68;100.00
41078;BME280;26823;42.662;23.352;2023-04-25T00:29:33;93994.66;;;9.90;100.00
41078;BME280;26823;42.662;23.352;2023-04-25T00:31:58;93984.88;;;9.75;100.00
41078;BME280;26823;42.662;23.352;2023-04-25T00:34:24;93979.09;;;9.82;100.00
41078;BME280;26823;42.662;23.352;2023-04-25T00:36:49;93955.56;;;10.01;100.00
41078;BME280;26823;42.662;23.352;2023-04-25T00:39:15;93988.91;;;10.10;100.00
41078;BME280;26823;42.662;23.352;2023-04-25T00:41:40;93994.44;;;10.19;100.00
41078;BME280;26823;42.662;23.352;2023-04-25T00:44:08;93985.34;;;9.63;100.00
41078;BME280;26823;42.662;23.352;2023-04-25T00:46:35;93979.63;;;9.65;100.00
41078;BME280;26823;42.662;23.352;2023-04-25T00:49:00;93970.75;;;9.64;100.00
41078;BME280;26823;42.662;23.352;2023-04-25T00:51:26;93979.09;;;9.62;100.00
41078;BME280;26823;42.662;23.352;2023-04-25T00:53:52;93973.06;;;9.71;100.00
41078;BME280;26823;42.662;23.352;2023-04-25T00:56:20;93956.56;;;9.53;100.00
41078;BME280;26823;42.662;23.352;2023-04-25T00:58:47;93963.00;;;9.57;100.00
41078;BME280;26823;42.662;23.352;2023-04-25T01:01:13;93982.09;;;9.80;100.00
41078;BME280;26823;42.662;23.352;2023-04-25T01:03:39;93960.13;;;9.87;100.00
41078;BME280;26823;42.662;23.352;2023-04-25T01:06:11;93974.75;;;9.67;100.00
41078;BME280;26823;42.662;23.352;2023-04-25T01:08:38;93980.09;;;9.53;100.00
41078;BME280;26823;42.662;23.352;2023-04-25T01:11:04;93975.91;;;9.41;100.00
41078;BME280;26823;42.662;23.352;2023-04-25T01:13:31;93945.84;;;9.29;100.00
41078;BME280;26823;42.662;23.352;2023-04-25T01:15:58;93946.00;;;9.57;100.00
41078;BME280;26823;42.662;23.352;2023-04-25T01:18:23;93937.81;;;9.62;100.00
41078;BME280;26823;42.662;23.352;2023-04-25T01:20:51;93935.97;;;9.76;100.00
41078;BME280;26823;42.662;23.352;2023-04-25T01:23:16;93940.69;;;10.18;100.00
41078;BME280;26823;42.662;23.352;2023-04-25T01:25:42;93952.59;;;10.17;100.00
41078;BME280;26823;42.662;23.352;2023-04-25T01:28:08;93945.38;;;9.79;100.00
41078;BME280;26823;42.662;23.352;2023-04-25T01:30:34;93943.75;;;9.97;100.00
41078;BME280;26823;42.662;23.352;2023-04-25T01:33:00;93930.31;;;10.25;100.00
41078;BME280;26823;42.662;23.352;2023-04-25T01:35:26;93931.78;;;10.03;100.00
41078;BME280;26823;42.662;23.352;2023-04-25T01:37:51;93948.69;;;10.09;100.00
41078;BME280;26823;42.662;23.352;2023-04-25T01:40:17;93956.81;;;10.23;100.00
41078;BME280;26823;42.662;23.352;2023-04-25T01:42:44;93963.28;;;10.08;100.00
41078;BME280;26823;42.662;23.352;2023-04-25T01:45:10;93943.09;;;9.86;100.00
41078;BME280;26823;42.662;23.352;2023-04-25T01:47:36;93954.00;;;9.81;100.00
41078;BME280;26823;42.662;23.352;2023-04-25T01:50:03;93949.69;;;9.80;100.00
41078;BME280;26823;42.662;23.352;2023-04-25T01:52:29;93959.19;;;9.77;100.00
41078;BME280;26823;42.662;23.352;2023-04-25T01:54:56;93969.19;;;9.77;100.00
41078;BME280;26823;42.662;23.352;2023-04-25T01:57:22;93959.56;;;9.71;100.00
41078;BME280;26823;42.662;23.352;2023-04-25T01:59:47;93968.19;;;9.73;100.00
41078;BME280;26823;42.662;23.352;2023-04-25T02:02:13;93955.56;;;9.68;100.00
41078;BME280;26823;42.662;23.352;2023-04-25T02:04:39;93954.72;;;9.68;100.00
41078;BME280;26823;42.662;23.352;2023-04-25T02:07:04;93951.69;;;9.55;100.00
41078;BME280;26823;42.662;23.352;2023-04-25T02:09:29;93960.06;;;9.54;100.00
41078;BME280;26823;42.662;23.352;2023-04-25T02:11:55;93939.84;;;9.51;100.00
41078;BME280;26823;42.662;23.352;2023-04-25T02:14:20;93946.66;;;9.49;100.00
41078;BME280;26823;42.662;23.352;2023-04-25T02:16:46;93954.31;;;9.60;100.00
41078;BME280;26823;42.662;23.352;2023-04-25T02:19:12;93937.38;;;9.55;100.00
41078;BME280;26823;42.662;23.352;2023-04-25T02:21:37;93940.22;;;9.63;100.00
41078;BME280;26823;42.662;23.352;2023-04-25T02:24:03;93936.59;;;9.54;100.00
41078;BME280;26823;42.662;23.352;2023-04-25T02:26:29;93919.16;;;9.46;100.00
41078;BME280;26823;42.662;23.352;2023-04-25T02:28:56;93928.19;;;9.56;100.00
41078;BME280;26823;42.662;23.352;2023-04-25T02:31:22;93907.78;;;9.50;100.00
41078;BME280;26823;42.662;23.352;2023-04-25T02:33:47;93913.47;;;9.48;100.00
41078;BME280;26823;42.662;23.352;2023-04-25T02:36:13;93904.22;;;9.35;100.00
41078;BME280;26823;42.662;23.352;2023-04-25T02:38:38;93908.38;;;9.46;100.00
41078;BME280;26823;42.662;23.352;2023-04-25T02:41:04;93903.84;;;9.23;100.00
41078;BME280;26823;42.662;23.352;2023-04-25T02:43:30;93906.63;;;9.37;100.00
41078;BME280;26823;42.662;23.352;2023-04-25T02:46:02;93915.31;;;9.34;100.00
41078;BME280;26823;42.662;23.352;2023-04-25T02:48:27;93893.59;;;9.25;100.00
41078;BME280;26823;42.662;23.352;2023-04-25T02:50:54;93905.69;;;9.27;100.00
41078;BME280;26823;42.662;23.352;2023-04-25T02:53:19;93905.91;;;9.31;100.00
41078;BME280;26823;42.662;23.352;2023-04-25T02:55:45;93889.56;;;9.22;100.00
41078;BME280;26823;42.662;23.352;2023-04-25T02:58:10;93889.41;;;9.33;100.00
41078;BME280;26823;42.662;23.352;2023-04-25T03:00:36;93898.31;;;9.33;100.00
41078;BME280;26823;42.662;23.352;2023-04-25T03:03:01;93903.06;;;9.22;100.00
41078;BME280;26823;42.662;23.352;2023-04-25T03:05:26;93895.16;;;9.07;100.00
41078;BME280;26823;42.662;23.352;2023-04-25T03:07:52;93892.34;;;9.17;100.00
41078;BME280;26823;42.662;23.352;2023-04-25T03:10:17;93894.38;;;9.06;100.00
41078;BME280;26823;42.662;23.352;2023-04-25T03:12:43;93887.81;;;8.93;100.00
41078;BME280;26823;42.662;23.352;2023-04-25T03:15:08;93887.75;;;8.98;100.00
41078;BME280;26823;42.662;23.352;2023-04-25T03:17:34;93880.28;;;8.90;100.00
41078;BME280;26823;42.662;23.352;2023-04-25T03:19:59;93901.28;;;8.93;100.00
41078;BME280;26823;42.662;23.352;2023-04-25T03:22:25;93895.69;;;9.09;100.00
41078;BME280;26823;42.662;23.352;2023-04-25T03:24:51;93901.00;;;9.14;100.00
41078;BME280;26823;42.662;23.352;2023-04-25T03:27:17;93895.97;;;9.07;100.00
41078;BME280;26823;42.662;23.352;2023-04-25T03:29:42;93887.44;;;9.00;100.00
41078;BME280;26823;42.662;23.352;2023-04-25T03:32:15;93892.28;;;9.22;100.00
41078;BME280;26823;42.662;23.352;2023-04-25T03:34:40;93884.38;;;9.26;100.00
41078;BME280;26823;42.662;23.352;2023-04-25T03:37:06;93883.94;;;9.19;100.00
41078;BME280;26823;42.662;23.352;2023-04-25T03:39:32;93885.75;;;9.04;100.00
41078;BME280;26823;42.662;23.352;2023-04-25T03:41:57;93885.97;;;9.08;100.00
41078;BME280;26823;42.662;23.352;2023-04-25T03:44:22;93884.91;;;9.09;100.00
41078;BME280;26823;42.662;23.352;2023-04-25T03:46:49;93896.22;;;9.11;100.00
41078;BME280;26823;42.662;23.352;2023-04-25T03:49:15;93893.13;;;9.37;100.00
41078;BME280;26823;42.662;23.352;2023-04-25T03:51:41;93892.19;;;9.46;100.00
41078;BME280;26823;42.662;23.352;2023-04-25T03:54:06;93875.78;;;9.24;100.00
41078;BME280;26823;42.662;23.352;2023-04-25T03:56:32;93894.34;;;9.44;100.00
41078;BME280;26823;42.662;23.352;2023-04-25T03:58:58;93884.44;;;9.21;100.00
41078;BME280;26823;42.662;23.352;2023-04-25T04:01:23;93872.06;;;9.01;100.00
41078;BME280;26823;42.662;23.352;2023-04-25T04:03:49;93873.00;;;9.10;100.00
41078;BME280;26823;42.662;23.352;2023-04-25T04:06:14;93882.03;;;9.19;100.00
41078;BME280;26823;42.662;23.352;2023-04-25T04:08:40;93892.28;;;9.22;100.00
41078;BME280;26823;42.662;23.352;2023-04-25T04:11:05;93902.56;;;9.72;100.00
41078;BME280;26823;42.662;23.352;2023-04-25T04:13:31;93872.28;;;9.56;100.00
41078;BME280;26823;42.662;23.352;2023-04-25T04:15:56;93915.09;;;9.82;100.00
41078;BME280;26823;42.662;23.352;2023-04-25T04:18:23;93907.09;;;9.77;100.00
41078;BME280;26823;42.662;23.352;2023-04-25T04:20:48;93904.06;;;9.45;100.00
41078;BME280;26823;42.662;23.352;2023-04-25T04:23:14;93901.00;;;9.33;100.00
41078;BME280;26823;42.662;23.352;2023-04-25T04:25:39;93890.16;;;9.71;100.00
41078;BME280;26823;42.662;23.352;2023-04-25T04:28:05;93896.88;;;9.55;100.00
41078;BME280;26823;42.662;23.352;2023-04-25T04:30:31;93903.47;;;9.82;100.00
41078;BME280;26823;42.662;23.352;2023-04-25T04:32:57;93912.50;;;9.58;100.00
41078;BME280;26823;42.662;23.352;2023-04-25T04:35:23;93895.66;;;9.47;100.00
41078;BME280;26823;42.662;23.352;2023-04-25T04:37:48;93902.97;;;9.46;100.00
41078;BME280;26823;42.662;23.352;2023-04-25T04:40:14;93891.44;;;9.41;100.00
41078;BME280;26823;42.662;23.352;2023-04-25T04:42:43;93894.66;;;9.43;100.00
41078;BME280;26823;42.662;23.352;2023-04-25T04:45:11;93901.28;;;9.32;100.00
41078;BME280;26823;42.662;23.352;2023-04-25T04:47:38;93901.66;;;9.44;100.00
41078;BME280;26823;42.662;23.352;2023-04-25T04:50:08;93897.34;;;9.43;100.00
41078;BME280;26823;42.662;23.352;2023-04-25T04:52:36;93902.03;;;9.70;100.00
41078;BME280;26823;42.662;23.352;2023-04-25T04:55:03;93911.44;;;9.92;100.00
41078;BME280;26823;42.662;23.352;2023-04-25T04:57:29;93900.59;;;9.78;100.00
41078;BME280;26823;42.662;23.352;2023-04-25T04:59:55;93889.25;;;9.43;100.00
41078;BME280;26823;42.662;23.352;2023-04-25T05:02:20;93912.88;;;9.51;100.00
41078;BME280;26823;42.662;23.352;2023-04-25T05:04:46;93908.09;;;9.29;100.00
41078;BME280;26823;42.662;23.352;2023-04-25T05:07:12;93922.81;;;9.37;100.00
41078;BME280;26823;42.662;23.352;2023-04-25T05:09:37;93917.78;;;9.49;100.00
41078;BME280;26823;42.662;23.352;2023-04-25T05:12:03;93930.94;;;9.70;100.00
41078;BME280;26823;42.662;23.352;2023-04-25T05:14:28;93927.34;;;9.93;100.00
41078;BME280;26823;42.662;23.352;2023-04-25T05:16:54;93927.13;;;9.90;100.00
41078;BME280;26823;42.662;23.352;2023-04-25T05:19:19;93939.63;;;9.86;100.00
41078;BME280;26823;42.662;23.352;2023-04-25T05:21:45;93936.28;;;9.75;100.00
41078;BME280;26823;42.662;23.352;2023-04-25T05:24:10;93921.03;;;9.65;100.00
41078;BME280;26823;42.662;23.352;2023-04-25T05:26:36;93916.41;;;9.85;100.00
41078;BME280;26823;42.662;23.352;2023-04-25T05:29:02;93923.63;;;9.89;100.00
41078;BME280;26823;42.662;23.352;2023-04-25T05:31:27;93918.25;;;9.70;100.00
41078;BME280;26823;42.662;23.352;2023-04-25T05:33:53;93922.41;;;9.62;100.00
41078;BME280;26823;42.662;23.352;2023-04-25T05:36:19;93926.97;;;9.48;100.00
41078;BME280;26823;42.662;23.352;2023-04-25T05:38:44;93913.53;;;9.62;100.00
41078;BME280;26823;42.662;23.352;2023-04-25T05:41:10;93933.94;;;9.68;100.00
41078;BME280;26823;42.662;23.352;2023-04-25T05:43:35;93921.94;;;9.93;100.00
41078;BME280;26823;42.662;23.352;2023-04-25T05:46:01;93932.59;;;10.18;100.00
41078;BME280;26823;42.662;23.352;2023-04-25T05:48:26;93930.50;;;10.15;100.00
41078;BME280;26823;42.662;23.352;2023-04-25T05:50:52;93921.00;;;10.17;100.00
41078;BME280;26823;42.662;23.352;2023-04-25T05:53:18;93934.06;;;10.43;100.00
41078;BME280;26823;42.662;23.352;2023-04-25T05:55:44;93931.47;;;10.38;100.00
41078;BME280;26823;42.662;23.352;2023-04-25T05:58:09;93928.59;;;10.29;100.00
41078;BME280;26823;42.662;23.352;2023-04-25T06:00:35;93931.59;;;10.14;100.00
41078;BME280;26823;42.662;23.352;2023-04-25T06:03:00;93926.19;;;10.14;100.00
41078;BME280;26823;42.662;23.352;2023-04-25T06:05:26;93934.47;;;10.50;100.00
41078;BME280;26823;42.662;23.352;2023-04-25T06:07:51;93935.47;;;10.40;100.00
41078;BME280;26823;42.662;23.352;2023-04-25T06:10:17;93922.56;;;10.18;100.00
41078;BME280;26823;42.662;23.352;2023-04-25T06:12:42;93911.88;;;10.27;100.00
41078;BME280;26823;42.662;23.352;2023-04-25T06:15:08;93919.84;;;10.51;100.00
41078;BME280;26823;42.662;23.352;2023-04-25T06:17:33;93929.06;;;10.50;99.98
41078;BME280;26823;42.662;23.352;2023-04-25T06:19:59;93935.84;;;10.34;97.73
41078;BME280;26823;42.662;23.352;2023-04-25T06:22:24;93945.47;;;10.54;98.97
41078;BME280;26823;42.662;23.352;2023-04-25T06:24:50;93938.69;;;10.56;97.93
41078;BME280;26823;42.662;23.352;2023-04-25T06:27:15;93934.50;;;10.78;96.97
41078;BME280;26823;42.662;23.352;2023-04-25T06:29:40;93918.44;;;10.68;97.03
41078;BME280;26823;42.662;23.352;2023-04-25T06:32:06;93946.09;;;10.92;97.04
41078;BME280;26823;42.662;23.352;2023-04-25T06:34:31;93939.69;;;11.02;97.61
41078;BME280;26823;42.662;23.352;2023-04-25T06:36:57;93941.19;;;11.08;97.42
41078;BME280;26823;42.662;23.352;2023-04-25T06:39:22;93927.13;;;11.06;94.41
41078;BME280;26823;42.662;23.352;2023-04-25T06:41:50;93942.03;;;11.32;92.74
41078;BME280;26823;42.662;23.352;2023-04-25T06:44:16;93947.88;;;11.84;91.50
41078;BME280;26823;42.662;23.352;2023-04-25T06:46:41;93942.34;;;11.89;91.01
41078;BME280;26823;42.662;23.352;2023-04-25T06:49:07;93949.19;;;12.10;89.77
41078;BME280;26823;42.662;23.352;2023-04-25T06:51:32;93957.88;;;12.20;88.93
41078;BME280;26823;42.662;23.352;2023-04-25T06:53:58;93959.34;;;12.27;88.06
41078;BME280;26823;42.662;23.352;2023-04-25T06:56:24;93948.88;;;12.34;86.35
41078;BME280;26823;42.662;23.352;2023-04-25T06:58:49;93945.84;;;12.35;85.63
41078;BME280;26823;42.662;23.352;2023-04-25T07:01:15;93947.59;;;12.31;84.75
41078;BME280;26823;42.662;23.352;2023-04-25T07:03:40;93956.13;;;12.47;87.09
41078;BME280;26823;42.662;23.352;2023-04-25T07:06:06;93954.72;;;12.59;85.48
41078;BME280;26823;42.662;23.352;2023-04-25T07:08:31;93958.38;;;12.00;85.14
41078;BME280;26823;42.662;23.352;2023-04-25T07:10:56;93956.66;;;12.27;85.08
41078;BME280;26823;42.662;23.352;2023-04-25T07:13:22;93954.25;;;12.56;83.21
41078;BME280;26823;42.662;23.352;2023-04-25T07:15:47;93944.34;;;12.52;84.90
41078;BME280;26823;42.662;23.352;2023-04-25T07:18:13;93955.88;;;12.66;83.83
41078;BME280;26823;42.662;23.352;2023-04-25T07:20:39;93953.59;;;12.51;84.43
41078;BME280;26823;42.662;23.352;2023-04-25T07:23:05;93949.63;;;12.03;83.42
41078;BME280;26823;42.662;23.352;2023-04-25T07:25:30;93954.97;;;12.17;84.05
41078;BME280;26823;42.662;23.352;2023-04-25T07:27:56;93947.94;;;12.38;83.04
41078;BME280;26823;42.662;23.352;2023-04-25T07:30:21;93936.47;;;12.42;83.34
41078;BME280;26823;42.662;23.352;2023-04-25T07:32:54;93941.03;;;13.04;82.35
41078;BME280;26823;42.662;23.352;2023-04-25T07:35:19;93950.41;;;13.38;78.68
41078;BME280;26823;42.662;23.352;2023-04-25T07:37:45;93918.63;;;12.98;77.71
41078;BME280;26823;42.662;23.352;2023-04-25T07:40:11;93943.59;;;12.69;79.18
41078;BME280;26823;42.662;23.352;2023-04-25T07:42:36;93938.94;;;13.01;78.96
41078;BME280;26823;42.662;23.352;2023-04-25T07:45:02;93932.50;;;13.37;77.71
41078;BME280;26823;42.662;23.352;2023-04-25T07:47:28;93938.44;;;13.57;77.99
41078;BME280;26823;42.662;23.352;2023-04-25T07:49:53;93939.69;;;13.68;77.06
41078;BME280;26823;42.662;23.352;2023-04-25T07:52:19;93938.09;;;13.84;76.91
41078;BME280;26823;42.662;23.352;2023-04-25T07:54:44;93931.09;;;13.83;76.64
41078;BME280;26823;42.662;23.352;2023-04-25T07:57:10;93947.81;;;14.38;74.98
41078;BME280;26823;42.662;23.352;2023-04-25T07:59:35;93941.28;;;13.60;76.05
41078;BME280;26823;42.662;23.352;2023-04-25T08:02:01;93929.94;;;13.41;76.35
41078;BME280;26823;42.662;23.352;2023-04-25T08:04:27;93925.25;;;13.32;75.57
41078;BME280;26823;42.662;23.352;2023-04-25T08:06:53;93924.84;;;13.74;75.55
41078;BME280;26823;42.662;23.352;2023-04-25T08:09:19;93922.06;;;14.27;75.04
41078;BME280;26823;42.662;23.352;2023-04-25T08:11:45;93920.22;;;14.01;72.92
41078;BME280;26823;42.662;23.352;2023-04-25T08:14:12;93927.78;;;15.29;70.98
41078;BME280;26823;42.662;23.352;2023-04-25T08:16:37;93927.41;;;15.81;66.81
41078;BME280;26823;42.662;23.352;2023-04-25T08:19:03;93934.66;;;15.77;65.56
41078;BME280;26823;42.662;23.352;2023-04-25T08:21:28;93920.84;;;15.82;63.59
41078;BME280;26823;42.662;23.352;2023-04-25T08:23:54;93925.47;;;15.82;64.30
41078;BME280;26823;42.662;23.352;2023-04-25T08:26:19;93932.06;;;15.81;63.73
41078;BME280;26823;42.662;23.352;2023-04-25T08:28:46;93917.53;;;15.26;61.87
41078;BME280;26823;42.662;23.352;2023-04-25T08:31:12;93913.09;;;15.42;59.17
41078;BME280;26823;42.662;23.352;2023-04-25T08:33:37;93908.03;;;15.74;59.75
41078;BME280;26823;42.662;23.352;2023-04-25T08:36:03;93907.78;;;15.67;62.80
41078;BME280;26823;42.662;23.352;2023-04-25T08:38:28;93896.22;;;15.28;62.62
41078;BME280;26823;42.662;23.352;2023-04-25T08:40:54;93923.41;;;15.58;62.65
41078;BME280;26823;42.662;23.352;2023-04-25T08:43:20;93920.88;;;15.53;63.04
41078;BME280;26823;42.662;23.352;2023-04-25T08:45:46;93918.22;;;15.65;64.25
41078;BME280;26823;42.662;23.352;2023-04-25T08:48:13;93909.06;;;15.19;60.89
41078;BME280;26823;42.662;23.352;2023-04-25T08:50:49;93905.16;;;14.98;65.20
41078;BME280;26823;42.662;23.352;2023-04-25T08:53:16;93923.13;;;15.29;70.47
41078;BME280;26823;42.662;23.352;2023-04-25T08:55:45;93906.63;;;15.26;72.00
41078;BME280;26823;42.662;23.352;2023-04-25T08:58:11;93928.50;;;15.80;67.46
41078;BME280;26823;42.662;23.352;2023-04-25T09:00:38;93924.09;;;15.25;72.47
41078;BME280;26823;42.662;23.352;2023-04-25T09:03:04;93901.13;;;15.35;73.23
41078;BME280;26823;42.662;23.352;2023-04-25T09:05:30;93900.47;;;16.35;69.19
41078;BME280;26823;42.662;23.352;2023-04-25T09:07:55;93901.66;;;17.57;62.40
41078;BME280;26823;42.662;23.352;2023-04-25T09:10:21;93905.50;;;18.54;59.73
41078;BME280;26823;42.662;23.352;2023-04-25T09:13:07;93890.78;;;18.58;62.62
41078;BME280;26823;42.662;23.352;2023-04-25T09:15:51;93888.09;;;17.89;59.66
41078;BME280;26823;42.662;23.352;2023-04-25T09:18:24;93897.69;;;17.83;60.39
41078;BME280;26823;42.662;23.352;2023-04-25T09:20:54;93894.59;;;17.56;58.38
41078;BME280;26823;42.662;23.352;2023-04-25T09:23:21;93882.09;;;16.69;61.37
41078;BME280;26823;42.662;23.352;2023-04-25T09:25:49;93894.69;;;16.49;62.74
41078;BME280;26823;42.662;23.352;2023-04-25T09:28:14;93884.59;;;14.89;66.10
41078;BME280;26823;42.662;23.352;2023-04-25T09:30:40;93886.34;;;14.84;66.71
41078;BME280;26823;42.662;23.352;2023-04-25T09:33:10;93881.13;;;15.52;64.10
41078;BME280;26823;42.662;23.352;2023-04-25T09:35:40;93883.66;;;15.36;66.77
41078;BME280;26823;42.662;23.352;2023-04-25T09:40:39;93852.28;;;14.31;71.60
41078;BME280;26823;42.662;23.352;2023-04-25T09:43:09;93886.28;;;14.63;72.70
41078;BME280;26823;42.662;23.352;2023-04-25T09:45:41;93879.03;;;14.29;73.93
41078;BME280;26823;42.662;23.352;2023-04-25T09:48:11;93875.16;;;14.30;73.88
41078;BME280;26823;42.662;23.352;2023-04-25T09:50:36;93878.28;;;14.97;71.40
41078;BME280;26823;42.662;23.352;2023-04-25T09:53:05;93882.66;;;15.40;69.21
41078;BME280;26823;42.662;23.352;2023-04-25T09:55:34;93871.34;;;15.29;68.26
41078;BME280;26823;42.662;23.352;2023-04-25T09:58:04;93883.72;;;15.48;67.35
41078;BME280;26823;42.662;23.352;2023-04-25T10:00:33;93859.38;;;14.62;69.43
41078;BME280;26823;42.662;23.352;2023-04-25T10:03:01;93890.44;;;15.29;67.59
41078;BME280;26823;42.662;23.352;2023-04-25T10:05:32;93882.16;;;15.17;70.31
41078;BME280;26823;42.662;23.352;2023-04-25T10:08:02;93874.91;;;15.00;71.67
41078;BME280;26823;42.662;23.352;2023-04-25T10:10:30;93869.28;;;14.28;72.69
41078;BME280;26823;42.662;23.352;2023-04-25T10:13:03;93874.31;;;13.91;74.22
41078;BME280;26823;42.662;23.352;2023-04-25T10:15:29;93871.72;;;14.03;74.71
41078;BME280;26823;42.662;23.352;2023-04-25T10:17:56;93875.41;;;13.98;74.84
41078;BME280;26823;42.662;23.352;2023-04-25T10:23:40;93852.88;;;15.77;67.28
41078;BME280;26823;42.662;23.352;2023-04-25T10:26:06;93889.63;;;15.71;64.07
41078;BME280;26823;42.662;23.352;2023-04-25T10:28:59;93883.47;;;14.90;62.27
41078;BME280;26823;42.662;23.352;2023-04-25T10:31:26;93871.91;;;14.93;54.89
41078;BME280;26823;42.662;23.352;2023-04-25T10:33:53;93864.50;;;15.65;54.15
41078;BME280;26823;42.662;23.352;2023-04-25T10:36:22;93874.81;;;16.14;52.51
41078;BME280;26823;42.662;23.352;2023-04-25T10:38:49;93851.91;;;16.28;51.88
41078;BME280;26823;42.662;23.352;2023-04-25T10:41:21;93852.91;;;17.06;49.98
41078;BME280;26823;42.662;23.352;2023-04-25T10:44:09;93848.94;;;17.85;50.94
41078;BME280;26823;42.662;23.352;2023-04-25T10:46:50;93795.75;;;16.76;53.62
41078;BME280;26823;42.662;23.352;2023-04-25T10:49:33;93853.22;;;15.55;58.45
41078;BME280;26823;42.662;23.352;2023-04-25T10:52:36;93870.03;;;15.57;60.71
41078;BME280;26823;42.662;23.352;2023-04-25T10:55:04;93821.97;;;15.31;60.87
41078;BME280;26823;42.662;23.352;2023-04-25T11:00:20;93863.63;;;16.41;58.79
41078;BME280;26823;42.662;23.352;2023-04-25T11:03:07;93873.75;;;16.28;59.83
41078;BME280;26823;42.662;23.352;2023-04-25T11:05:35;93867.34;;;16.11;59.42
41078;BME280;26823;42.662;23.352;2023-04-25T11:08:02;93873.75;;;16.28;58.35
41078;BME280;26823;42.662;23.352;2023-04-25T11:10:32;93851.75;;;15.57;59.32
41078;BME280;26823;42.662;23.352;2023-04-25T11:12:58;93841.44;;;15.63;58.53
41078;BME280;26823;42.662;23.352;2023-04-25T11:15:25;93865.69;;;15.98;58.34
41078;BME280;26823;42.662;23.352;2023-04-25T11:17:54;93833.97;;;15.18;60.36
41078;BME280;26823;42.662;23.352;2023-04-25T11:20:20;93845.97;;;15.59;60.18
41078;BME280;26823;42.662;23.352;2023-04-25T11:22:46;93855.88;;;15.63;61.26
41078;BME280;26823;42.662;23.352;2023-04-25T11:25:14;93855.56;;;15.98;60.50
41078;BME280;26823;42.662;23.352;2023-04-25T11:27:57;93838.41;;;15.77;62.39
41078;BME280;26823;42.662;23.352;2023-04-25T11:30:32;93828.00;;;14.94;63.71
41078;BME280;26823;42.662;23.352;2023-04-25T11:32:57;93832.63;;;14.64;64.67
41078;BME280;26823;42.662;23.352;2023-04-25T11:35:23;93830.13;;;14.50;63.94
41078;BME280;26823;42.662;23.352;2023-04-25T11:37:50;93848.28;;;15.06;63.31
41078;BME280;26823;42.662;23.352;2023-04-25T11:40:16;93860.41;;;15.38;62.14
41078;BME280;26823;42.662;23.352;2023-04-25T11:42:47;93831.41;;;15.12;62.87
41078;BME280;26823;42.662;23.352;2023-04-25T11:45:14;93883.94;;;15.43;64.23
41078;BME280;26823;42.662;23.352;2023-04-25T11:47:40;93876.03;;;15.29;64.41
41078;BME280;26823;42.662;23.352;2023-04-25T11:50:12;93869.88;;;15.11;66.31
41078;BME280;26823;42.662;23.352;2023-04-25T11:55:09;93888.66;;;15.76;64.32
41078;BME280;26823;42.662;23.352;2023-04-25T11:57:35;93873.09;;;15.34;63.95
41078;BME280;26823;42.662;23.352;2023-04-25T12:00:13;93875.88;;;14.95;63.87
41078;BME280;26823;42.662;23.352;2023-04-25T12:02:52;93879.56;;;13.96;66.29
41078;BME280;26823;42.662;23.352;2023-04-25T12:05:19;93851.34;;;13.70;68.29
41078;BME280;26823;42.662;23.352;2023-04-25T12:07:46;93849.06;;;13.73;68.72
41078;BME280;26823;42.662;23.352;2023-04-25T12:10:13;93842.66;;;13.95;68.95
41078;BME280;26823;42.662;23.352;2023-04-25T12:12:43;93839.31;;;13.80;69.03
41078;BME280;26823;42.662;23.352;2023-04-25T12:17:45;93812.34;;;14.23;68.73
41078;BME280;26823;42.662;23.352;2023-04-25T12:20:16;93831.38;;;14.23;64.66
41078;BME280;26823;42.662;23.352;2023-04-25T12:22:44;93832.09;;;14.41;65.90
41078;BME280;26823;42.662;23.352;2023-04-25T12:25:13;93827.78;;;14.40;61.57
41078;BME280;26823;42.662;23.352;2023-04-25T12:27:40;93825.91;;;14.31;64.63
41078;BME280;26823;42.662;23.352;2023-04-25T12:30:09;93822.75;;;14.12;64.30
41078;BME280;26823;42.662;23.352;2023-04-25T12:32:36;93827.25;;;14.16;65.76
41078;BME280;26823;42.662;23.352;2023-04-25T12:35:02;93832.41;;;14.48;62.63
41078;BME280;26823;42.662;23.352;2023-04-25T12:37:28;93835.88;;;15.17;62.30
41078;BME280;26823;42.662;23.352;2023-04-25T12:39:54;93869.53;;;15.97;61.38
41078;BME280;26823;42.662;23.352;2023-04-25T12:42:19;93881.53;;;15.62;62.39
41078;BME280;26823;42.662;23.352;2023-04-25T12:44:45;93890.16;;;17.52;57.06
41078;BME280;26823;42.662;23.352;2023-04-25T12:47:11;93877.78;;;16.68;60.63
41078;BME280;26823;42.662;23.352;2023-04-25T12:49:37;93886.09;;;16.96;60.61
41078;BME280;26823;42.662;23.352;2023-04-25T12:52:02;93894.69;;;16.49;63.49
41078;BME280;26823;42.662;23.352;2023-04-25T12:54:28;93897.28;;;16.45;62.85
41078;BME280;26823;42.662;23.352;2023-04-25T12:56:54;93913.00;;;16.48;63.00
41078;BME280;26823;42.662;23.352;2023-04-25T12:59:20;93904.31;;;16.34;64.26
41078;BME280;26823;42.662;23.352;2023-04-25T13:01:46;93906.44;;;16.16;65.79